createdAt,value
2023-01-07T00:00:53.231Z,5.13
2023-01-07T00:03:20.178Z,4.67
2023-01-07T00:05:46.867Z,4.43
2023-01-07T00:08:13.478Z,4.20
2023-01-07T00:10:40.059Z,4.63
2023-01-07T00:13:06.630Z,4.40
2023-01-07T00:15:33.273Z,4.83
2023-01-07T00:17:59.877Z,4.60
2023-01-07T00:20:26.516Z,4.70
2023-01-07T00:22:53.099Z,4.80
2023-01-07T00:25:19.704Z,4.30
2023-01-07T00:27:46.299Z,4.70
2023-01-07T00:30:13.286Z,4.00
2023-01-07T00:33:15.136Z,4.40
2023-01-07T00:35:44.734Z,4.33
2023-01-07T00:38:11.765Z,4.53
2023-01-07T00:40:38.495Z,5.13
2023-01-07T00:43:05.138Z,4.87
2023-01-07T00:45:33.629Z,5.33
2023-01-07T00:48:02.250Z,5.10
2023-01-07T00:50:34.101Z,4.93
2023-01-07T00:53:01.267Z,5.40
2023-01-07T00:55:27.883Z,5.17
2023-01-07T00:57:55.044Z,4.70
2023-01-07T01:00:23.239Z,4.00
2023-01-07T01:02:50.816Z,4.30
2023-01-07T01:05:17.996Z,4.13
2023-01-07T01:07:45.212Z,3.30
2023-01-07T01:10:14.368Z,3.13
2023-01-07T01:12:41.465Z,3.50
2023-01-07T01:15:11.646Z,3.60
2023-01-07T01:17:38.788Z,4.40
2023-01-07T01:20:07.169Z,5.27
2023-01-07T01:22:33.826Z,4.33
2023-01-07T01:25:00.514Z,4.43
2023-01-07T01:27:27.094Z,3.83
2023-01-07T01:29:53.637Z,3.47
2023-01-07T01:32:20.240Z,3.27
2023-01-07T01:34:46.826Z,3.23
2023-01-07T01:37:13.476Z,3.47
2023-01-07T01:39:40.064Z,3.30
2023-01-07T01:42:06.769Z,3.07
2023-01-07T01:44:43.856Z,3.30
2023-01-07T01:47:35.694Z,3.20
2023-01-07T01:50:19.033Z,3.07
2023-01-07T01:53:02.648Z,2.70
2023-01-07T01:55:32.532Z,3.40
2023-01-07T01:58:02.900Z,2.77
2023-01-07T02:00:29.835Z,3.17
2023-01-07T02:02:58.371Z,3.27
2023-01-07T02:05:44.247Z,3.10
2023-01-07T02:08:10.841Z,3.10
2023-01-07T02:10:38.140Z,3.00
2023-01-07T02:13:24.826Z,3.23
2023-01-07T02:15:57.127Z,3.93
2023-01-07T02:18:56.991Z,3.60
2023-01-07T02:21:48.039Z,3.80
2023-01-07T02:24:36.142Z,4.50
2023-01-07T02:27:40.411Z,4.10
2023-01-07T02:30:18.849Z,4.60
2023-01-07T02:32:57.593Z,4.47
2023-01-07T02:35:35.764Z,4.27
2023-01-07T02:38:35.117Z,4.50
2023-01-07T02:41:15.828Z,5.20
2023-01-07T02:43:48.350Z,5.20
2023-01-07T02:46:30.999Z,6.07
2023-01-07T02:49:01.659Z,5.97
2023-01-07T02:51:33.022Z,6.33
2023-01-07T02:53:59.923Z,5.77
2023-01-07T02:56:52.127Z,7.13
2023-01-07T02:59:21.325Z,5.90
2023-01-07T03:02:09.797Z,6.63
2023-01-07T03:04:59.669Z,5.50
2023-01-07T03:07:53.935Z,5.93
2023-01-07T03:10:37.145Z,5.90
2023-01-07T03:13:12.146Z,5.17
2023-01-07T03:15:41.088Z,5.30
2023-01-07T03:18:16.116Z,5.00
2023-01-07T03:20:44.649Z,4.40
2023-01-07T03:23:12.382Z,5.40
2023-01-07T03:25:47.016Z,5.17
2023-01-07T03:28:16.700Z,5.67
2023-01-07T03:30:43.642Z,4.87
2023-01-07T03:33:16.320Z,4.23
2023-01-07T03:35:45.988Z,4.57
2023-01-07T03:38:13.299Z,5.20
2023-01-07T03:40:40.251Z,4.87
2023-01-07T03:43:16.079Z,5.83
2023-01-07T03:45:42.857Z,6.30
2023-01-07T03:48:09.478Z,6.17
2023-01-07T03:50:36.082Z,6.03
2023-01-07T03:53:02.930Z,5.73
2023-01-07T03:55:29.487Z,6.67
2023-01-07T03:57:56.840Z,5.90
2023-01-07T04:00:23.677Z,6.40
2023-01-07T04:02:50.491Z,6.43
2023-01-07T04:05:17.208Z,6.77
2023-01-07T04:07:43.816Z,8.30
2023-01-07T04:10:10.416Z,7.90
2023-01-07T04:12:37.054Z,6.73
2023-01-07T04:15:04.730Z,7.47
2023-01-07T04:17:31.348Z,6.83
2023-01-07T04:19:58.000Z,7.97
2023-01-07T04:22:24.562Z,7.70
2023-01-07T04:24:51.132Z,8.10
2023-01-07T04:27:17.740Z,10.90
2023-01-07T04:29:44.326Z,9.10
2023-01-07T04:32:11.552Z,8.37
2023-01-07T04:34:38.106Z,7.90
2023-01-07T04:37:04.704Z,7.73
2023-01-07T04:39:31.276Z,4.03
2023-01-07T04:41:57.893Z,5.40
2023-01-07T04:44:24.452Z,8.67
2023-01-07T04:46:51.093Z,10.67
2023-01-07T04:49:17.761Z,8.80
2023-01-07T04:51:44.318Z,9.70
2023-01-07T04:54:10.893Z,6.40
2023-01-07T04:56:37.532Z,7.33
2023-01-07T04:59:04.173Z,6.70
2023-01-07T05:01:32.720Z,6.87
2023-01-07T05:03:59.582Z,10.80
2023-01-07T05:06:26.188Z,7.03
2023-01-07T05:08:52.909Z,7.53
2023-01-07T05:11:21.826Z,11.17
2023-01-07T05:13:51.490Z,26.80
2023-01-07T05:16:18.143Z,34.50
2023-01-07T05:18:45.008Z,18.53
2023-01-07T05:21:12.450Z,8.37
2023-01-07T05:23:39.105Z,12.23
2023-01-07T05:26:06.761Z,18.70
2023-01-07T05:28:33.493Z,26.70
2023-01-07T05:31:00.246Z,16.17
2023-01-07T05:33:26.951Z,25.77
2023-01-07T05:35:53.612Z,14.20
2023-01-07T05:38:20.176Z,11.37
2023-01-07T05:40:50.291Z,13.23
2023-01-07T05:43:17.689Z,23.70
2023-01-07T05:45:45.884Z,57.37
2023-01-07T05:48:13.123Z,10.00
2023-01-07T05:50:39.797Z,5.37
2023-01-07T05:53:06.468Z,10.00
2023-01-07T05:55:33.262Z,6.53
2023-01-07T05:57:59.926Z,17.00
2023-01-07T06:00:26.481Z,14.93
2023-01-07T06:02:53.066Z,7.63
2023-01-07T06:05:19.721Z,12.43
2023-01-07T06:07:46.323Z,15.20
2023-01-07T06:10:12.928Z,13.70
2023-01-07T06:12:39.580Z,15.43
2023-01-07T06:15:09.427Z,7.13
2023-01-07T06:17:36.083Z,10.97
2023-01-07T06:20:09.320Z,5.72
2023-01-07T06:22:36.435Z,8.97
2023-01-07T06:25:03.996Z,8.67
2023-01-07T06:27:30.668Z,9.47
2023-01-07T06:29:57.276Z,5.75
2023-01-07T06:32:23.910Z,10.63
2023-01-07T06:34:50.566Z,10.17
2023-01-07T06:37:18.139Z,8.93
2023-01-07T06:39:44.709Z,9.53
2023-01-07T06:42:11.289Z,10.80
2023-01-07T06:44:37.921Z,11.43
2023-01-07T06:47:04.540Z,11.30
2023-01-07T06:49:31.087Z,10.33
2023-01-07T06:51:57.738Z,12.87
2023-01-07T06:54:24.416Z,13.17
2023-01-07T06:56:51.193Z,9.77
2023-01-07T06:59:17.820Z,10.43
2023-01-07T07:01:46.415Z,8.23
2023-01-07T07:04:13.409Z,8.20
2023-01-07T07:06:39.969Z,7.47
2023-01-07T07:09:06.576Z,6.40
2023-01-07T07:11:33.346Z,7.60
2023-01-07T07:13:59.999Z,8.50
2023-01-07T07:16:26.720Z,8.43
2023-01-07T07:18:53.832Z,6.33
2023-01-07T07:21:20.492Z,8.40
2023-01-07T07:23:47.113Z,7.20
2023-01-07T07:26:14.138Z,8.83
2023-01-07T07:28:42.891Z,10.37
2023-01-07T07:31:10.037Z,10.27
2023-01-07T07:33:36.838Z,9.07
2023-01-07T07:36:04.467Z,7.90
2023-01-07T07:38:31.184Z,5.87
2023-01-07T07:40:57.817Z,7.43
2023-01-07T07:43:24.402Z,8.23
2023-01-07T07:45:51.112Z,9.23
2023-01-07T07:48:17.873Z,11.40
2023-01-07T07:50:44.500Z,9.17
2023-01-07T07:53:11.685Z,10.10
2023-01-07T07:55:39.123Z,8.83
2023-01-07T07:58:06.534Z,7.93
2023-01-07T08:00:34.349Z,8.30
2023-01-07T08:03:01.129Z,7.90
2023-01-07T08:05:28.083Z,7.90
2023-01-07T08:07:54.901Z,7.67
2023-01-07T08:10:21.790Z,7.97
2023-01-07T08:12:49.637Z,6.00
2023-01-07T08:15:16.348Z,6.33
2023-01-07T08:17:42.983Z,5.70
2023-01-07T08:20:10.511Z,6.33
2023-01-07T08:22:37.108Z,6.77
2023-01-07T08:25:03.885Z,5.10
2023-01-07T08:27:30.438Z,5.67
2023-01-07T08:29:57.060Z,5.00
2023-01-07T08:32:23.728Z,5.50
2023-01-07T08:34:50.445Z,5.67
2023-01-07T08:37:17.074Z,6.27
2023-01-07T08:39:43.723Z,6.63
2023-01-07T08:42:10.319Z,7.50
2023-01-07T08:44:36.928Z,7.47
2023-01-07T08:47:03.685Z,19.73
2023-01-07T08:49:30.204Z,13.07
2023-01-07T08:51:56.827Z,7.47
2023-01-07T08:54:23.457Z,6.27
2023-01-07T08:56:50.112Z,8.53
2023-01-07T08:59:16.732Z,6.70
2023-01-07T09:01:43.577Z,6.13
2023-01-07T09:04:10.296Z,6.80
2023-01-07T09:06:36.855Z,6.53
2023-01-07T09:09:03.621Z,6.40
2023-01-07T09:11:30.245Z,6.50
2023-01-07T09:13:56.845Z,6.03
2023-01-07T09:16:23.631Z,5.27
2023-01-07T09:18:50.338Z,6.00
2023-01-07T09:21:16.919Z,4.90
2023-01-07T09:23:43.472Z,6.03
2023-01-07T09:26:10.167Z,5.27
2023-01-07T09:28:36.810Z,7.17
2023-01-07T09:31:04.328Z,8.37
2023-01-07T09:33:31.094Z,9.60
2023-01-07T09:35:57.693Z,8.23
2023-01-07T09:38:33.433Z,6.99
2023-01-07T09:41:00.012Z,7.07
2023-01-07T09:44:01.006Z,7.40
2023-01-07T09:46:20.974Z,6.80
2023-01-07T09:48:51.841Z,6.63
2023-01-07T09:51:29.271Z,6.30
2023-01-07T09:53:59.682Z,5.80
2023-01-07T09:56:36.859Z,5.80
2023-01-07T09:59:04.803Z,5.27
2023-01-07T10:01:43.595Z,4.57
2023-01-07T10:04:32.736Z,5.60
2023-01-07T10:07:02.567Z,6.27
2023-01-07T10:09:47.318Z,6.30
2023-01-07T10:12:16.922Z,4.63
2023-01-07T10:14:50.977Z,3.97
2023-01-07T10:17:26.605Z,4.00
2023-01-07T10:20:01.639Z,5.07
2023-01-07T10:22:39.372Z,4.43
2023-01-07T10:25:41.097Z,4.20
2023-01-07T10:28:13.629Z,4.53
2023-01-07T10:30:43.994Z,4.17
2023-01-07T10:33:24.980Z,4.10
2023-01-07T10:36:20.851Z,4.43
2023-01-07T10:39:03.249Z,3.93
2023-01-07T10:41:40.453Z,5.20
2023-01-07T10:44:37.790Z,4.37
2023-01-07T10:47:20.851Z,5.10
2023-01-07T10:49:57.229Z,5.33
2023-01-07T10:52:51.277Z,4.00
2023-01-07T10:55:34.975Z,4.43
2023-01-07T10:58:02.966Z,5.30
2023-01-07T11:00:29.638Z,4.30
2023-01-07T11:03:00.939Z,4.83
2023-01-07T11:05:35.332Z,5.87
2023-01-07T11:08:02.335Z,5.97
2023-01-07T11:10:32.095Z,4.03
2023-01-07T11:13:15.120Z,4.90
2023-01-07T11:15:54.828Z,3.60
2023-01-07T11:18:44.494Z,3.20
2023-01-07T11:21:43.384Z,2.93
2023-01-07T11:23:58.380Z,5.27
2023-01-07T11:26:25.808Z,3.23
2023-01-07T11:28:58.325Z,4.27
2023-01-07T11:31:53.717Z,3.10
2023-01-07T11:34:24.296Z,3.60
2023-01-07T11:36:51.287Z,4.37
2023-01-07T11:39:20.889Z,2.50
2023-01-07T11:41:58.101Z,3.50
2023-01-07T11:44:25.546Z,3.50
2023-01-07T11:46:52.485Z,8.03
2023-01-07T11:49:25.858Z,3.47
2023-01-07T11:51:52.900Z,3.43
2023-01-07T11:54:22.461Z,3.43
2023-01-07T11:56:49.204Z,3.43
2023-01-07T11:59:26.303Z,3.67
2023-01-07T12:01:59.755Z,3.20
2023-01-07T12:04:28.619Z,2.87
2023-01-07T12:06:58.991Z,2.67
2023-01-07T12:09:28.717Z,3.70
2023-01-07T12:11:58.079Z,3.90
2023-01-07T12:14:33.397Z,3.40
2023-01-07T12:17:16.062Z,2.17
2023-01-07T12:19:42.637Z,2.80
2023-01-07T12:22:34.125Z,2.50
2023-01-07T12:25:11.853Z,3.40
2023-01-07T12:27:57.071Z,2.43
2023-01-07T12:30:49.570Z,3.07
2023-01-07T12:33:37.934Z,3.00
2023-01-07T12:36:45.993Z,2.53
2023-01-07T12:39:39.919Z,2.50
2023-01-07T12:42:23.632Z,3.10
2023-01-07T12:44:54.138Z,3.40
2023-01-07T12:47:34.916Z,2.90
2023-01-07T12:50:12.637Z,2.80
2023-01-07T12:52:53.448Z,3.00
2023-01-07T12:55:35.045Z,3.53
2023-01-07T12:58:29.427Z,3.27
2023-01-07T13:01:02.924Z,3.00
2023-01-07T13:03:44.477Z,3.30
2023-01-07T13:06:45.945Z,3.50
2023-01-07T13:09:19.734Z,3.80
2023-01-07T13:12:41.719Z,3.53
2023-01-07T13:15:23.647Z,4.90
2023-01-07T13:17:51.566Z,5.20
2023-01-07T13:20:26.957Z,5.63
2023-01-07T13:22:55.191Z,4.60
2023-01-07T13:25:39.911Z,3.97
2023-01-07T13:28:29.817Z,4.77
2023-01-07T13:31:34.305Z,3.43
2023-01-07T13:34:13.095Z,8.03
2023-01-07T13:37:09.098Z,3.33
2023-01-07T13:40:04.653Z,4.50
2023-01-07T13:42:37.151Z,6.30
2023-01-07T13:45:10.939Z,8.43
2023-01-07T13:47:50.926Z,6.43
2023-01-07T13:50:24.489Z,4.20
2023-01-07T13:53:03.305Z,6.90
2023-01-07T13:55:43.949Z,10.27
2023-01-07T13:58:43.589Z,7.63
2023-01-07T14:01:18.279Z,20.80
2023-01-07T14:03:53.151Z,11.83
2023-01-07T14:06:23.838Z,13.33
2023-01-07T14:09:05.387Z,12.63
2023-01-07T14:11:36.076Z,15.07
2023-01-07T14:14:38.297Z,10.43
2023-01-07T14:17:20.193Z,13.17
2023-01-07T14:19:49.794Z,16.67
2023-01-07T14:22:34.821Z,14.63
2023-01-07T14:25:19.313Z,13.40
2023-01-07T14:27:57.975Z,16.70
2023-01-07T14:30:28.938Z,15.97
2023-01-07T14:32:58.184Z,16.80
2023-01-07T14:35:40.405Z,16.13
2023-01-07T14:38:40.187Z,19.23
2023-01-07T14:41:10.391Z,15.20
2023-01-07T14:43:43.461Z,13.03
2023-01-07T14:46:46.023Z,28.13
2023-01-07T14:49:27.492Z,34.93
2023-01-07T14:52:19.904Z,19.47
2023-01-07T14:55:09.293Z,21.00
2023-01-07T14:58:13.901Z,83.50
2023-01-07T15:00:46.364Z,50.90
2023-01-07T15:03:34.573Z,23.03
2023-01-07T15:06:16.007Z,30.03
2023-01-07T15:09:32.553Z,108.04
2023-01-07T15:12:20.760Z,204.90
2023-01-07T15:15:16.886Z,28.17
2023-01-07T15:17:43.524Z,104.30
2023-01-07T15:20:10.795Z,49.03
2023-01-07T15:22:53.466Z,37.13
2023-01-07T15:25:44.546Z,37.03
2023-01-07T15:28:23.803Z,25.27
2023-01-07T15:31:13.579Z,15.07
2023-01-07T15:33:55.161Z,20.50
2023-01-07T15:36:21.923Z,30.97
2023-01-07T15:38:52.850Z,20.77
2023-01-07T15:41:38.368Z,40.30
2023-01-07T15:44:07.876Z,43.73
2023-01-07T15:46:39.928Z,9.10
2023-01-07T15:49:09.552Z,17.37
2023-01-07T15:51:39.771Z,35.13
2023-01-07T15:54:19.436Z,30.30
2023-01-07T15:56:46.052Z,31.67
2023-01-07T15:59:14.197Z,24.20
2023-01-07T16:01:50.922Z,18.17
2023-01-07T16:04:27.119Z,78.00
2023-01-07T16:06:58.105Z,22.40
2023-01-07T16:09:25.235Z,47.17
2023-01-07T16:11:52.285Z,29.30
2023-01-07T16:14:24.210Z,17.87
2023-01-07T16:17:16.444Z,38.33
2023-01-07T16:19:43.083Z,25.87
2023-01-07T16:22:15.905Z,15.63
2023-01-07T16:24:47.833Z,18.17
2023-01-07T16:27:15.847Z,16.30
2023-01-07T16:29:50.140Z,13.33
2023-01-07T16:32:18.411Z,13.68
2023-01-07T16:34:55.603Z,17.40
2023-01-07T16:37:22.532Z,64.43
2023-01-07T16:39:51.411Z,34.57
2023-01-07T16:42:20.237Z,45.50
2023-01-07T16:44:46.938Z,27.67
2023-01-07T16:47:24.099Z,23.53
2023-01-07T16:49:52.281Z,31.23
2023-01-07T16:52:20.666Z,29.80
2023-01-07T16:54:48.582Z,24.07
2023-01-07T16:57:15.171Z,21.57
2023-01-07T16:59:49.596Z,11.93
2023-01-07T17:02:33.513Z,27.00
2023-01-07T17:05:21.561Z,25.17
2023-01-07T17:07:51.599Z,24.70
2023-01-07T17:10:30.250Z,21.43
2023-01-07T17:12:56.817Z,33.77
2023-01-07T17:15:33.102Z,18.03
2023-01-07T17:18:11.620Z,15.90
2023-01-07T17:20:54.956Z,13.70
2023-01-07T17:23:27.651Z,22.13
2023-01-07T17:25:58.103Z,16.27
2023-01-07T17:28:26.579Z,22.33
2023-01-07T17:30:53.420Z,14.73
2023-01-07T17:33:24.673Z,18.47
2023-01-07T17:35:54.142Z,25.77
2023-01-07T17:38:21.093Z,41.00
2023-01-07T17:40:48.236Z,66.13
2023-01-07T17:43:35.107Z,97.83
2023-01-07T17:46:07.233Z,107.23
2023-01-07T17:48:35.133Z,127.77
2023-01-07T17:51:04.489Z,60.47
2023-01-07T17:53:53.126Z,57.43
2023-01-07T17:56:20.072Z,23.43
2023-01-07T17:58:47.063Z,14.07
2023-01-07T18:01:20.195Z,18.20
2023-01-07T18:03:47.242Z,21.50
2023-01-07T18:06:21.367Z,18.93
2023-01-07T18:08:49.324Z,18.63
2023-01-07T18:11:40.077Z,16.10
2023-01-07T18:14:06.909Z,14.30
2023-01-07T18:16:34.384Z,16.90
2023-01-07T18:19:01.024Z,18.47
2023-01-07T18:21:27.566Z,29.83
2023-01-07T18:23:54.180Z,27.40
2023-01-07T18:26:20.843Z,19.07
2023-01-07T18:28:48.312Z,16.47
2023-01-07T18:31:15.766Z,17.63
2023-01-07T18:33:42.429Z,23.80
2023-01-07T18:36:10.043Z,17.00
2023-01-07T18:38:36.656Z,19.80
2023-01-07T18:41:03.600Z,15.40
2023-01-07T18:43:30.322Z,19.40
2023-01-07T18:45:57.091Z,17.43
2023-01-07T18:48:23.805Z,14.73
2023-01-07T18:50:50.554Z,16.90
2023-01-07T18:53:18.292Z,13.93
2023-01-07T18:55:46.167Z,19.10
2023-01-07T18:58:14.270Z,20.47
2023-01-07T19:00:41.561Z,19.43
2023-01-07T19:03:09.005Z,17.77
2023-01-07T19:05:38.984Z,18.87
2023-01-07T19:08:05.762Z,18.47
2023-01-07T19:10:32.500Z,18.17
2023-01-07T19:12:59.095Z,23.13
2023-01-07T19:15:25.667Z,24.53
2023-01-07T19:17:52.226Z,24.83
2023-01-07T19:20:18.846Z,24.37
2023-01-07T19:22:45.389Z,29.80
2023-01-07T19:25:12.026Z,55.80
2023-01-07T19:27:38.661Z,30.47
2023-01-07T19:30:05.781Z,35.37
2023-01-07T19:32:32.433Z,26.60
2023-01-07T19:34:59.072Z,42.10
2023-01-07T19:37:25.756Z,18.05
2023-01-07T19:39:52.334Z,15.60
2023-01-07T19:42:19.036Z,15.57
2023-01-07T19:44:45.635Z,17.57
2023-01-07T19:47:12.275Z,31.80
2023-01-07T19:49:38.964Z,17.30
2023-01-07T19:52:05.713Z,17.47
2023-01-07T19:54:34.355Z,13.03
2023-01-07T19:57:01.015Z,15.90
2023-01-07T19:59:27.634Z,12.97
2023-01-07T20:01:54.522Z,15.20
2023-01-07T20:04:21.436Z,18.17
2023-01-07T20:06:48.086Z,18.83
2023-01-07T20:09:14.780Z,17.07
2023-01-07T20:11:43.054Z,20.30
2023-01-07T20:14:12.005Z,21.27
2023-01-07T20:16:41.516Z,22.23
2023-01-07T20:19:11.363Z,27.30
2023-01-07T20:21:39.258Z,41.37
2023-01-07T20:24:06.534Z,40.50
2023-01-07T20:26:34.382Z,27.00
2023-01-07T20:29:01.431Z,40.80
2023-01-07T20:31:30.546Z,53.67
2023-01-07T20:33:57.753Z,44.03
2023-01-07T20:36:27.007Z,41.77
2023-01-07T20:38:53.856Z,84.00
2023-01-07T20:41:22.748Z,42.63
2023-01-07T20:43:57.446Z,31.50
2023-01-07T20:46:25.049Z,21.27
2023-01-07T20:48:51.759Z,20.00
2023-01-07T20:51:18.939Z,24.23
2023-01-07T20:53:47.078Z,33.47
2023-01-07T20:56:18.167Z,22.47
2023-01-07T20:58:45.262Z,18.07
2023-01-07T21:01:14.088Z,41.90
2023-01-07T21:03:41.377Z,39.60
2023-01-07T21:06:10.150Z,30.47
2023-01-07T21:08:37.384Z,30.50
2023-01-07T21:11:04.265Z,30.30
2023-01-07T21:13:30.868Z,26.50
2023-01-07T21:16:03.044Z,23.53
2023-01-07T21:18:30.287Z,15.17
2023-01-07T21:20:56.883Z,41.83
2023-01-07T21:23:23.558Z,35.33
2023-01-07T21:25:50.137Z,23.83
2023-01-07T21:28:16.759Z,24.23
2023-01-07T21:30:43.486Z,28.60
2023-01-07T21:33:10.355Z,29.80
2023-01-07T21:35:40.601Z,29.37
2023-01-07T21:38:07.573Z,33.00
2023-01-07T21:40:34.257Z,43.57
2023-01-07T21:43:01.086Z,32.50
2023-01-07T21:45:27.701Z,33.77
2023-01-07T21:47:54.263Z,30.57
2023-01-07T21:50:20.933Z,27.93
2023-01-07T21:52:47.504Z,32.87
2023-01-07T21:55:14.104Z,30.07
2023-01-07T21:57:40.802Z,29.73
2023-01-07T22:00:07.980Z,28.03
2023-01-07T22:02:34.598Z,31.30
2023-01-07T22:05:01.288Z,34.37
2023-01-07T22:07:27.870Z,34.03
2023-01-07T22:09:54.461Z,36.90
2023-01-07T22:12:21.147Z,29.27
2023-01-07T22:14:47.733Z,24.77
2023-01-07T22:17:15.083Z,24.17
2023-01-07T22:19:41.776Z,20.23
2023-01-07T22:22:08.448Z,22.83
2023-01-07T22:24:35.076Z,19.83
2023-01-07T22:27:03.865Z,18.63
2023-01-07T22:29:32.411Z,15.80
2023-01-07T22:31:59.062Z,15.03
2023-01-07T22:34:25.797Z,16.97
2023-01-07T22:37:11.592Z,13.13
2023-01-07T22:39:41.640Z,11.07
2023-01-07T22:42:11.796Z,11.03
2023-01-07T22:44:42.653Z,9.40
2023-01-07T22:47:12.555Z,12.07
2023-01-07T22:49:39.553Z,12.53
2023-01-07T22:52:06.545Z,14.73
2023-01-07T22:54:36.268Z,13.87
2023-01-07T22:57:05.051Z,14.50
2023-01-07T22:59:31.579Z,12.60
2023-01-07T23:01:58.241Z,13.67
2023-01-07T23:04:24.817Z,12.90
2023-01-07T23:06:51.498Z,14.60
2023-01-07T23:09:18.163Z,15.37
2023-01-07T23:11:59.223Z,20.67
2023-01-07T23:14:26.735Z,17.97
2023-01-07T23:16:53.606Z,18.13
2023-01-07T23:19:21.212Z,15.73
2023-01-07T23:21:51.362Z,16.03
2023-01-07T23:24:18.035Z,17.10
2023-01-07T23:26:46.403Z,15.80
2023-01-07T23:29:13.054Z,17.93
2023-01-07T23:31:39.764Z,17.00
2023-01-07T23:34:06.503Z,21.27
2023-01-07T23:36:33.469Z,20.83
2023-01-07T23:39:00.050Z,18.73
2023-01-07T23:41:26.663Z,26.10
2023-01-07T23:43:53.301Z,21.43
2023-01-07T23:46:20.001Z,38.23
2023-01-07T23:48:46.672Z,21.47
2023-01-07T23:51:18.597Z,19.93
2023-01-07T23:53:45.867Z,20.57
2023-01-07T23:56:13.074Z,21.30
2023-01-07T23:58:39.784Z,22.83
